createdAt,value
2023-11-28T00:00:34.662Z,1.84
2023-11-28T00:03:01.376Z,1.92
2023-11-28T00:05:28.132Z,1.81
2023-11-28T00:07:54.784Z,1.90
2023-11-28T00:10:21.630Z,1.89
2023-11-28T00:12:48.075Z,1.90
2023-11-28T00:15:15.742Z,1.89
2023-11-28T00:17:42.444Z,1.82
2023-11-28T00:20:09.515Z,1.86
2023-11-28T00:22:36.024Z,1.81
2023-11-28T00:25:02.585Z,1.85
2023-11-28T00:27:29.071Z,1.83
2023-11-28T00:29:55.564Z,1.79
2023-11-28T00:32:21.998Z,1.81
2023-11-28T00:34:48.535Z,1.83
2023-11-28T00:37:15.033Z,1.81
2023-11-28T00:39:41.806Z,1.78
2023-11-28T00:42:08.249Z,1.83
2023-11-28T00:44:34.773Z,1.58
2023-11-28T00:47:01.426Z,1.79
2023-11-28T00:49:28.028Z,1.80
2023-11-28T00:51:54.922Z,1.77
2023-11-28T00:54:21.922Z,1.74
2023-11-28T00:56:48.693Z,1.74
2023-11-28T00:59:15.163Z,1.69
2023-11-28T01:01:41.710Z,1.49
2023-11-28T01:04:08.352Z,1.62
2023-11-28T01:06:34.984Z,1.83
2023-11-28T01:09:01.966Z,1.94
2023-11-28T01:11:28.497Z,2.01
2023-11-28T01:13:55.501Z,1.96
2023-11-28T01:16:22.505Z,2.08
2023-11-28T01:18:50.539Z,2.22
2023-11-28T01:21:16.976Z,2.30
2023-11-28T01:23:43.421Z,2.32
2023-11-28T01:26:09.862Z,2.30
2023-11-28T01:28:36.516Z,2.34
2023-11-28T01:31:03.126Z,2.48
2023-11-28T01:33:29.576Z,2.43
2023-11-28T01:35:56.021Z,2.60
2023-11-28T01:38:22.515Z,2.46
2023-11-28T01:40:51.955Z,2.44
2023-11-28T01:43:30.299Z,2.76
2023-11-28T01:45:58.342Z,2.68
2023-11-28T01:48:25.142Z,2.77
2023-11-28T01:50:52.321Z,2.79
2023-11-28T01:53:20.660Z,2.72
2023-11-28T01:55:47.810Z,2.79
2023-11-28T01:58:14.644Z,2.73
2023-11-28T02:00:41.120Z,2.85
2023-11-28T02:03:10.654Z,2.85
2023-11-28T02:05:38.690Z,2.85
2023-11-28T02:08:07.136Z,2.63
2023-11-28T02:10:35.832Z,2.80
2023-11-28T02:13:02.758Z,2.78
2023-11-28T02:15:43.762Z,2.73
2023-11-28T02:18:11.134Z,2.76
2023-11-28T02:20:38.865Z,2.69
2023-11-28T02:23:06.452Z,2.76
2023-11-28T02:25:41.319Z,2.75
2023-11-28T02:28:07.810Z,2.68
2023-11-28T02:30:34.244Z,2.68
2023-11-28T02:33:00.712Z,2.70
2023-11-28T02:35:27.164Z,2.64
2023-11-28T02:37:53.721Z,2.62
2023-11-28T02:40:20.235Z,2.52
2023-11-28T02:42:46.803Z,2.50
2023-11-28T02:45:13.312Z,2.46
2023-11-28T02:47:39.790Z,2.44
2023-11-28T02:50:06.939Z,2.35
2023-11-28T02:52:33.395Z,2.32
2023-11-28T02:54:59.949Z,2.06
2023-11-28T02:57:26.461Z,2.20
2023-11-28T02:59:52.892Z,2.16
2023-11-28T03:02:19.385Z,2.15
2023-11-28T03:04:46.036Z,2.05
2023-11-28T03:07:12.494Z,1.82
2023-11-28T03:09:38.965Z,2.04
2023-11-28T03:12:05.556Z,2.02
2023-11-28T03:14:31.988Z,2.00
2023-11-28T03:16:58.548Z,1.80
2023-11-28T03:19:25.654Z,2.00
2023-11-28T03:21:52.116Z,2.04
2023-11-28T03:24:18.782Z,1.82
2023-11-28T03:26:45.383Z,2.06
2023-11-28T03:29:11.984Z,1.88
2023-11-28T03:31:38.820Z,1.90
2023-11-28T03:34:06.283Z,2.24
2023-11-28T03:36:32.728Z,2.00
2023-11-28T03:38:59.193Z,2.33
2023-11-28T03:41:25.874Z,2.32
2023-11-28T03:43:52.433Z,2.37
2023-11-28T03:46:19.247Z,2.17
2023-11-28T03:48:45.807Z,2.46
2023-11-28T03:51:12.301Z,2.50
2023-11-28T03:53:38.840Z,2.37
2023-11-28T03:56:09.354Z,2.61
2023-11-28T03:58:36.622Z,2.62
2023-11-28T04:01:06.081Z,2.69
2023-11-28T04:03:33.290Z,2.72
2023-11-28T04:06:00.395Z,2.75
2023-11-28T04:08:26.891Z,2.67
2023-11-28T04:10:53.482Z,2.77
2023-11-28T04:13:20.015Z,2.66
2023-11-28T04:15:46.446Z,2.81
2023-11-28T04:18:13.119Z,2.82
2023-11-28T04:20:39.989Z,2.86
2023-11-28T04:23:07.862Z,2.85
2023-11-28T04:25:35.047Z,2.86
2023-11-28T04:28:02.364Z,2.84
2023-11-28T04:30:28.904Z,2.82
2023-11-28T04:32:55.511Z,2.79
2023-11-28T04:35:21.983Z,2.83
2023-11-28T04:37:48.818Z,2.85
2023-11-28T04:40:15.366Z,2.80
2023-11-28T04:42:41.855Z,2.85
2023-11-28T04:45:12.609Z,2.86
2023-11-28T04:47:39.367Z,2.82
2023-11-28T04:50:06.488Z,2.88
2023-11-28T04:52:33.247Z,2.89
2023-11-28T04:54:59.724Z,2.90
2023-11-28T04:57:26.330Z,2.75
2023-11-28T04:59:52.794Z,2.94
2023-11-28T05:02:19.533Z,2.89
2023-11-28T05:04:46.159Z,2.90
2023-11-28T05:07:14.905Z,2.75
2023-11-28T05:09:41.333Z,2.80
2023-11-28T05:12:09.789Z,2.89
2023-11-28T05:14:37.335Z,2.83
2023-11-28T05:17:05.658Z,2.86
2023-11-28T05:19:33.054Z,2.63
2023-11-28T05:21:59.560Z,2.78
2023-11-28T05:24:26.042Z,2.64
2023-11-28T05:26:52.778Z,2.77
2023-11-28T05:29:19.248Z,2.74
2023-11-28T05:31:45.770Z,2.55
2023-11-28T05:34:12.772Z,2.48
2023-11-28T05:36:39.294Z,2.36
2023-11-28T05:39:06.052Z,2.71
2023-11-28T05:41:32.502Z,2.71
2023-11-28T05:43:59.150Z,2.73
2023-11-28T05:46:25.798Z,2.72
2023-11-28T05:48:52.271Z,2.62
2023-11-28T05:51:18.990Z,2.69
2023-11-28T05:53:45.404Z,2.54
2023-11-28T05:56:13.415Z,2.69
2023-11-28T05:58:40.304Z,2.66
2023-11-28T06:01:07.226Z,2.66
2023-11-28T06:03:34.134Z,2.60
2023-11-28T06:06:01.022Z,2.56
2023-11-28T06:08:27.664Z,2.61
2023-11-28T06:10:54.126Z,2.58
2023-11-28T06:13:20.557Z,2.60
2023-11-28T06:15:47.188Z,2.59
2023-11-28T06:18:13.709Z,2.59
2023-11-28T06:20:40.260Z,2.60
2023-11-28T06:23:06.771Z,2.41
2023-11-28T06:25:33.684Z,2.58
2023-11-28T06:28:00.246Z,2.57
2023-11-28T06:30:28.377Z,2.26
2023-11-28T06:32:54.992Z,2.53
2023-11-28T06:35:21.513Z,2.50
2023-11-28T06:37:49.448Z,2.53
2023-11-28T06:40:17.210Z,2.55
2023-11-28T06:42:44.809Z,2.52
2023-11-28T06:45:12.808Z,2.50
2023-11-28T06:47:40.206Z,2.47
2023-11-28T06:50:07.202Z,2.48
2023-11-28T06:52:37.901Z,2.44
2023-11-28T06:55:08.610Z,2.48
2023-11-28T06:57:36.211Z,2.35
2023-11-28T07:00:02.844Z,2.37
2023-11-28T07:02:29.595Z,2.24
2023-11-28T07:04:56.447Z,2.23
2023-11-28T07:07:22.921Z,2.38
2023-11-28T07:09:49.495Z,2.38
2023-11-28T07:12:15.987Z,2.37
2023-11-28T07:14:42.573Z,2.17
2023-11-28T07:17:09.100Z,2.23
2023-11-28T07:19:35.750Z,2.34
2023-11-28T07:22:02.228Z,1.99
2023-11-28T07:24:28.674Z,2.18
2023-11-28T07:26:55.289Z,2.29
2023-11-28T07:29:21.749Z,2.34
2023-11-28T07:31:48.280Z,2.34
2023-11-28T07:34:15.086Z,2.33
2023-11-28T07:36:46.195Z,2.30
2023-11-28T07:39:15.391Z,2.30
2023-11-28T07:41:41.963Z,2.31
2023-11-28T07:44:08.585Z,2.28
2023-11-28T07:46:35.237Z,2.29
2023-11-28T07:49:01.999Z,2.32
2023-11-28T07:51:28.506Z,2.36
2023-11-28T07:53:54.997Z,2.01
2023-11-28T07:56:21.719Z,2.34
2023-11-28T07:58:48.328Z,2.37
2023-11-28T08:01:14.786Z,2.37
2023-11-28T08:03:41.370Z,2.42
2023-11-28T08:06:08.143Z,2.36
2023-11-28T08:08:35.513Z,2.44
2023-11-28T08:11:02.112Z,2.43
2023-11-28T08:13:29.214Z,2.45
2023-11-28T08:15:59.164Z,2.45
2023-11-28T08:18:32.740Z,2.51
2023-11-28T08:21:03.706Z,2.45
2023-11-28T08:23:30.230Z,2.48
2023-11-28T08:25:56.766Z,2.23
2023-11-28T08:28:25.059Z,2.53
2023-11-28T08:30:51.909Z,2.52
2023-11-28T08:33:19.538Z,2.48
2023-11-28T08:35:48.480Z,2.52
2023-11-28T08:38:15.134Z,2.42
2023-11-28T08:40:41.782Z,2.24
2023-11-28T08:43:08.290Z,2.56
2023-11-28T08:45:34.893Z,2.47
2023-11-28T08:48:01.408Z,2.20
2023-11-28T08:50:27.941Z,2.50
2023-11-28T08:52:54.537Z,2.44
2023-11-28T08:55:21.088Z,2.45
2023-11-28T08:57:47.835Z,2.42
2023-11-28T09:00:15.674Z,2.32
2023-11-28T09:02:44.000Z,2.45
2023-11-28T09:05:10.591Z,2.43
2023-11-28T09:07:38.622Z,2.45
2023-11-28T09:10:06.689Z,2.46
2023-11-28T09:12:33.202Z,2.45
2023-11-28T09:14:59.804Z,2.40
2023-11-28T09:17:26.398Z,2.39
2023-11-28T09:19:53.328Z,2.41
2023-11-28T09:22:19.928Z,2.42
2023-11-28T09:24:46.920Z,2.39
2023-11-28T09:27:14.133Z,2.42
2023-11-28T09:29:40.940Z,2.41
2023-11-28T09:32:08.091Z,2.25
2023-11-28T09:34:34.925Z,2.17
2023-11-28T09:37:02.533Z,2.40
2023-11-28T09:39:29.369Z,2.61
2023-11-28T09:42:02.117Z,2.46
2023-11-28T09:44:33.875Z,2.54
2023-11-28T09:47:09.283Z,2.68
2023-11-28T09:49:41.813Z,2.69
2023-11-28T09:52:09.894Z,2.32
2023-11-28T09:54:40.473Z,2.36
2023-11-28T09:57:08.695Z,2.73
2023-11-28T09:59:44.733Z,2.66
2023-11-28T10:02:16.569Z,2.66
2023-11-28T10:04:44.066Z,2.44
2023-11-28T10:07:12.648Z,2.68
2023-11-28T10:09:42.282Z,2.82
2023-11-28T10:12:11.346Z,2.74
2023-11-28T10:14:40.426Z,2.52
2023-11-28T10:17:09.904Z,2.94
2023-11-28T10:19:36.698Z,2.79
2023-11-28T10:22:07.417Z,2.84
2023-11-28T10:24:35.128Z,1.88
2023-11-28T10:27:02.804Z,2.89
2023-11-28T10:29:29.955Z,2.43
2023-11-28T10:31:57.242Z,2.56
2023-11-28T10:34:24.082Z,2.71
2023-11-28T10:36:50.760Z,2.34
2023-11-28T10:39:20.977Z,2.40
2023-11-28T10:41:51.001Z,2.90
2023-11-28T10:44:17.975Z,2.85
2023-11-28T10:46:45.139Z,2.80
2023-11-28T10:49:11.869Z,2.80
2023-11-28T10:51:38.609Z,2.55
2023-11-28T10:54:12.535Z,2.80
2023-11-28T10:56:49.454Z,2.81
2023-11-28T10:59:22.442Z,2.86
2023-11-28T11:01:51.444Z,2.50
2023-11-28T11:04:18.904Z,2.39
2023-11-28T11:06:45.793Z,1.62
2023-11-28T11:09:12.760Z,1.64
2023-11-28T11:11:41.624Z,2.30
2023-11-28T11:14:21.114Z,2.15
2023-11-28T11:16:55.686Z,2.92
2023-11-28T11:19:24.198Z,2.82
2023-11-28T11:21:50.705Z,2.91
2023-11-28T11:24:19.533Z,2.63
2023-11-28T11:26:47.588Z,3.00
2023-11-28T11:29:20.947Z,3.05
2023-11-28T11:31:49.368Z,3.04
2023-11-28T11:34:38.072Z,3.11
2023-11-28T11:37:09.811Z,2.82
2023-11-28T11:39:38.891Z,2.83
2023-11-28T11:42:10.520Z,2.63
2023-11-28T11:44:41.678Z,2.30
2023-11-28T11:47:19.747Z,2.61
2023-11-28T11:49:47.860Z,2.58
2023-11-28T11:52:15.967Z,2.52
2023-11-28T11:54:44.019Z,2.99
2023-11-28T11:57:12.720Z,2.98
2023-11-28T11:59:42.835Z,2.75
2023-11-28T12:02:10.552Z,3.00
2023-11-28T12:04:45.173Z,2.91
2023-11-28T12:07:13.934Z,2.74
2023-11-28T12:09:42.385Z,2.14
2023-11-28T12:12:14.152Z,2.75
2023-11-28T12:14:41.905Z,2.76
2023-11-28T12:17:08.870Z,1.90
2023-11-28T12:19:35.630Z,2.28
2023-11-28T12:22:05.143Z,1.92
2023-11-28T12:24:32.921Z,2.26
2023-11-28T12:27:04.277Z,2.62
2023-11-28T12:29:37.523Z,2.55
2023-11-28T12:32:05.224Z,2.15
2023-11-28T12:34:36.127Z,2.22
2023-11-28T12:37:04.547Z,2.52
2023-11-28T12:39:31.266Z,2.04
2023-11-28T12:41:58.557Z,1.98
2023-11-28T12:44:26.835Z,2.28
2023-11-28T12:46:54.124Z,1.60
2023-11-28T12:49:22.078Z,1.98
2023-11-28T12:51:49.365Z,1.95
2023-11-28T12:54:18.676Z,1.93
2023-11-28T12:56:54.624Z,1.91
2023-11-28T12:59:24.475Z,0.66
2023-11-28T13:01:57.142Z,1.83
2023-11-28T13:04:24.981Z,2.29
2023-11-28T13:07:05.818Z,2.05
2023-11-28T13:09:41.939Z,2.12
2023-11-28T13:12:10.737Z,2.16
2023-11-28T13:14:38.432Z,2.19
2023-11-28T13:17:08.018Z,2.26
2023-11-28T13:19:39.203Z,2.39
2023-11-28T13:22:07.036Z,2.29
2023-11-28T13:24:33.681Z,2.24
2023-11-28T13:27:00.393Z,1.33
2023-11-28T13:29:26.972Z,2.50
2023-11-28T13:31:54.580Z,1.61
2023-11-28T13:34:21.421Z,1.62
2023-11-28T13:36:49.683Z,2.67
2023-11-28T13:39:17.756Z,2.37
2023-11-28T13:41:44.923Z,1.36
2023-11-28T13:44:11.725Z,2.78
2023-11-28T13:46:38.454Z,2.82
2023-11-28T13:49:05.161Z,2.64
2023-11-28T13:51:32.005Z,2.79
2023-11-28T13:53:58.589Z,2.82
2023-11-28T13:56:25.439Z,2.04
2023-11-28T13:58:52.279Z,2.69
2023-11-28T14:01:19.105Z,2.76
2023-11-28T14:03:45.815Z,2.62
2023-11-28T14:06:16.063Z,1.95
2023-11-28T14:08:42.599Z,2.89
2023-11-28T14:11:09.402Z,2.48
2023-11-28T14:13:36.455Z,1.47
2023-11-28T14:16:06.290Z,1.54
2023-11-28T14:18:33.303Z,1.47
2023-11-28T14:21:04.281Z,1.67
2023-11-28T14:23:32.226Z,2.00
2023-11-28T14:25:59.181Z,1.87
2023-11-28T14:28:25.992Z,0.91
2023-11-28T14:30:52.755Z,1.54
2023-11-28T14:33:19.572Z,1.89
2023-11-28T14:35:46.423Z,1.71
2023-11-28T14:38:13.128Z,1.69
2023-11-28T14:40:40.401Z,1.62
2023-11-28T14:43:07.954Z,0.34
2023-11-28T14:45:34.667Z,1.34
2023-11-28T14:48:02.095Z,1.03
2023-11-28T14:50:29.052Z,1.07
2023-11-28T14:52:55.836Z,1.12
2023-11-28T14:55:22.642Z,0.81
2023-11-28T14:57:49.473Z,0.85
2023-11-28T15:00:20.856Z,-0.07
2023-11-28T15:02:47.789Z,0.54
2023-11-28T15:05:14.997Z,0.66
2023-11-28T15:07:43.225Z,-1.59
2023-11-28T15:10:10.227Z,-1.02
2023-11-28T15:12:37.048Z,0.00
2023-11-28T15:15:03.917Z,-0.01
2023-11-28T15:17:30.769Z,-0.11
2023-11-28T15:19:59.360Z,0.25
2023-11-28T15:22:27.691Z,-0.22
2023-11-28T15:24:56.020Z,-0.94
2023-11-28T15:27:23.381Z,0.00
2023-11-28T15:29:53.951Z,-0.50
2023-11-28T15:32:21.297Z,-1.01
2023-11-28T15:34:49.566Z,-0.59
2023-11-28T15:37:16.600Z,-0.56
2023-11-28T15:39:43.371Z,-0.58
2023-11-28T15:42:10.997Z,-0.85
2023-11-28T15:44:37.537Z,-2.34
2023-11-28T15:47:04.520Z,-0.86
2023-11-28T15:49:40.017Z,-0.95
2023-11-28T15:52:14.973Z,-1.30
2023-11-28T15:54:41.824Z,-1.52
2023-11-28T15:57:11.923Z,-1.50
2023-11-28T15:59:39.381Z,-1.50
2023-11-28T16:02:07.383Z,-1.57
2023-11-28T16:04:34.958Z,-1.68
2023-11-28T16:07:01.488Z,-1.45
2023-11-28T16:09:28.029Z,-1.68
2023-11-28T16:11:54.578Z,-1.62
2023-11-28T16:14:21.192Z,-1.57
2023-11-28T16:16:47.961Z,-1.52
2023-11-28T16:19:14.692Z,-1.63
2023-11-28T16:21:41.782Z,-1.46
2023-11-28T16:24:10.161Z,-1.15
2023-11-28T16:26:40.118Z,-1.09
2023-11-28T16:29:06.809Z,-1.34
2023-11-28T16:31:33.439Z,-0.98
2023-11-28T16:34:00.146Z,-0.88
2023-11-28T16:36:26.728Z,-0.82
2023-11-28T16:38:53.353Z,-1.00
2023-11-28T16:41:19.800Z,-0.96
2023-11-28T16:43:46.999Z,-0.70
2023-11-28T16:46:13.549Z,-0.68
2023-11-28T16:48:40.012Z,-0.65
2023-11-28T16:51:11.409Z,-0.61
2023-11-28T16:53:38.457Z,-0.59
2023-11-28T16:56:06.914Z,-0.67
2023-11-28T16:58:36.270Z,-0.55
2023-11-28T17:01:03.682Z,-0.55
2023-11-28T17:03:30.669Z,-0.77
2023-11-28T17:05:57.337Z,-0.61
2023-11-28T17:08:24.077Z,-0.53
2023-11-28T17:10:50.960Z,-0.55
2023-11-28T17:13:17.577Z,-0.58
2023-11-28T17:15:44.072Z,-0.48
2023-11-28T17:18:10.849Z,-0.49
2023-11-28T17:20:37.478Z,-0.52
2023-11-28T17:23:04.097Z,-0.46
2023-11-28T17:25:30.705Z,-0.43
2023-11-28T17:27:57.203Z,-0.51
2023-11-28T17:30:23.634Z,-0.46
2023-11-28T17:32:50.276Z,-0.42
2023-11-28T17:35:18.606Z,-0.42
2023-11-28T17:37:45.342Z,-0.39
2023-11-28T17:40:12.330Z,-0.41
2023-11-28T17:42:38.757Z,-0.40
2023-11-28T17:45:05.836Z,-0.34
2023-11-28T17:50:04.240Z,-0.69
2023-11-28T17:52:30.800Z,-0.43
2023-11-28T17:54:59.489Z,-0.29
2023-11-28T17:57:26.800Z,-0.21
2023-11-28T17:59:53.829Z,-0.19
2023-11-28T18:02:20.558Z,-0.16
2023-11-28T18:04:47.234Z,-0.10
2023-11-28T18:07:14.200Z,-0.07
2023-11-28T18:09:40.860Z,-0.02
2023-11-28T18:12:07.939Z,0.00
2023-11-28T18:14:35.736Z,-0.19
2023-11-28T18:17:03.102Z,0.01
2023-11-28T18:19:30.781Z,0.15
2023-11-28T18:21:57.536Z,0.16
2023-11-28T18:24:23.988Z,0.16
2023-11-28T18:26:50.488Z,0.28
2023-11-28T18:29:17.292Z,0.28
2023-11-28T18:31:43.992Z,0.24
2023-11-28T18:34:10.548Z,0.32
2023-11-28T18:36:39.987Z,0.44
2023-11-28T18:39:07.262Z,0.38
2023-11-28T18:41:41.190Z,0.28
2023-11-28T18:44:12.079Z,0.35
2023-11-28T18:46:45.713Z,0.52
2023-11-28T18:49:12.439Z,0.53
2023-11-28T18:51:39.454Z,0.59
2023-11-28T18:54:07.933Z,0.34
2023-11-28T18:56:34.642Z,0.62
2023-11-28T18:59:01.268Z,0.64
2023-11-28T19:01:29.294Z,0.65
2023-11-28T19:03:57.595Z,0.65
2023-11-28T19:06:30.780Z,0.65
2023-11-28T19:08:58.606Z,0.52
2023-11-28T19:11:27.396Z,0.66
2023-11-28T19:13:55.777Z,0.59
2023-11-28T19:16:29.372Z,0.45
2023-11-28T19:18:57.185Z,0.65
2023-11-28T19:21:25.031Z,0.65
2023-11-28T19:23:52.205Z,0.65
2023-11-28T19:26:20.479Z,0.66
2023-11-28T19:28:47.382Z,0.55
2023-11-28T19:31:15.111Z,0.64
2023-11-28T19:33:42.957Z,0.66
2023-11-28T19:36:12.833Z,0.65
2023-11-28T19:38:42.145Z,0.73
2023-11-28T19:41:11.748Z,0.75
2023-11-28T19:43:39.528Z,0.75
2023-11-28T19:46:08.138Z,0.81
2023-11-28T19:48:35.045Z,0.70
2023-11-28T19:51:01.769Z,0.84
2023-11-28T19:53:30.124Z,0.93
2023-11-28T19:55:57.284Z,0.97
2023-11-28T19:58:23.734Z,0.81
2023-11-28T20:00:51.631Z,0.99
2023-11-28T20:03:19.401Z,0.98
2023-11-28T20:05:46.830Z,0.98
2023-11-28T20:08:13.989Z,1.01
2023-11-28T20:10:40.539Z,1.03
2023-11-28T20:13:07.387Z,0.86
2023-11-28T20:15:35.866Z,1.01
2023-11-28T20:18:03.322Z,1.06
2023-11-28T20:20:30.144Z,1.00
2023-11-28T20:22:57.460Z,1.10
2023-11-28T20:25:24.270Z,1.03
2023-11-28T20:27:50.900Z,1.10
2023-11-28T20:30:18.027Z,0.96
2023-11-28T20:32:45.717Z,1.16
2023-11-28T20:35:12.496Z,0.95
2023-11-28T20:37:39.952Z,1.07
2023-11-28T20:40:09.032Z,1.21
2023-11-28T20:42:35.522Z,1.20
2023-11-28T20:45:02.184Z,1.15
2023-11-28T20:47:29.841Z,1.25
2023-11-28T20:49:56.359Z,1.25
2023-11-28T20:52:22.946Z,1.09
2023-11-28T20:54:49.607Z,1.23
2023-11-28T20:57:16.041Z,1.16
2023-11-28T20:59:42.510Z,1.17
2023-11-28T21:02:09.093Z,1.25
2023-11-28T21:04:35.854Z,1.30
2023-11-28T21:07:02.479Z,1.24
2023-11-28T21:09:29.049Z,1.30
2023-11-28T21:11:55.571Z,1.27
2023-11-28T21:14:23.938Z,1.33
2023-11-28T21:16:50.531Z,1.36
2023-11-28T21:19:18.117Z,1.26
2023-11-28T21:21:44.732Z,1.39
2023-11-28T21:24:11.870Z,1.30
2023-11-28T21:26:42.673Z,1.40
2023-11-28T21:29:09.351Z,1.23
2023-11-28T21:31:36.129Z,1.46
2023-11-28T21:34:02.686Z,1.29
2023-11-28T21:36:31.372Z,1.46
2023-11-28T21:38:58.198Z,1.50
2023-11-28T21:41:25.244Z,1.46
2023-11-28T21:43:51.765Z,1.55
2023-11-28T21:46:19.312Z,1.55
2023-11-28T21:48:46.928Z,1.39
2023-11-28T21:51:14.376Z,1.59
2023-11-28T21:53:41.058Z,1.60
2023-11-28T21:56:07.663Z,1.62
2023-11-28T21:58:34.583Z,1.65
2023-11-28T22:01:01.591Z,1.61
2023-11-28T22:03:28.338Z,1.62
2023-11-28T22:05:55.050Z,1.65
2023-11-28T22:08:23.352Z,1.68
2023-11-28T22:10:50.688Z,1.70
2023-11-28T22:13:18.705Z,1.55
2023-11-28T22:15:46.208Z,1.68
2023-11-28T22:18:13.727Z,1.70
2023-11-28T22:20:40.437Z,1.73
2023-11-28T22:23:06.978Z,1.74
2023-11-28T22:25:33.420Z,1.75
2023-11-28T22:27:59.970Z,1.50
2023-11-28T22:30:26.572Z,1.60
2023-11-28T22:32:53.057Z,1.74
2023-11-28T22:35:19.638Z,1.76
2023-11-28T22:37:47.954Z,1.65
2023-11-28T22:40:16.183Z,1.75
2023-11-28T22:42:43.814Z,1.76
2023-11-28T22:45:12.610Z,1.65
2023-11-28T22:47:39.991Z,1.74
2023-11-28T22:50:10.109Z,1.61
2023-11-28T22:52:36.838Z,1.54
2023-11-28T22:55:06.199Z,1.71
2023-11-28T22:57:33.890Z,1.66
2023-11-28T23:00:01.637Z,1.71
2023-11-28T23:02:29.370Z,1.71
2023-11-28T23:04:56.198Z,1.72
2023-11-28T23:07:23.595Z,1.60
2023-11-28T23:09:50.594Z,1.74
2023-11-28T23:12:18.772Z,1.73
2023-11-28T23:14:46.248Z,1.74
2023-11-28T23:17:13.039Z,1.68
2023-11-28T23:19:39.508Z,1.72
2023-11-28T23:22:06.063Z,1.63
2023-11-28T23:24:32.511Z,1.66
2023-11-28T23:27:00.322Z,1.75
2023-11-28T23:29:26.924Z,1.42
2023-11-28T23:31:54.611Z,1.77
2023-11-28T23:34:21.401Z,1.75
2023-11-28T23:36:48.803Z,1.69
2023-11-28T23:39:19.270Z,1.70
2023-11-28T23:41:46.082Z,1.80
2023-11-28T23:44:12.830Z,1.82
2023-11-28T23:46:39.608Z,1.87
2023-11-28T23:49:06.143Z,1.92
2023-11-28T23:51:33.112Z,1.81
2023-11-28T23:54:00.260Z,1.92
2023-11-28T23:56:27.213Z,1.94
2023-11-28T23:58:53.710Z,1.94
